• Join FlightAware (Why Join?)
  • Login
  • US Flag 
03:14AM EDT


 

Airport Tracker/Info


-or-


 

Live Flight TrackerFlight Track Log ✈ AWE3397 ✈ 23-Apr-2013 ✈ KPHL - KMSY

Flight Track Log - Related Links

Times and Time Zones

All times are in EDT time to prevent confusion due to time zone crossing. See the AWE3397 flight status page for this flight to view local times or setup timezone preferences in your user account.

Time Position Orientation Groundspeed Altitude Reporting Facility
EDT Latitude Longitude Course Direction KTS MPH feet Rate Location/Type
08:07AM 39.8742 -75.2253 258° West 142 163 1,000  Level FAA TRACON SMA TRACON (SMA)
08:07AM 39.8794 -75.2094 67° East 140 161 2,000 2,460 Climbing FAA TRACON SMA TRACON (SMA)
08:07AM 39.8856 -75.1900 68° East 160 184 2,700 1,920 Climbing FAA TRACON SMA TRACON (SMA)
08:08AM 39.8906 -75.1706 71° East 188 216 3,300 2,220 Climbing FAA TRACON SMA TRACON (SMA)
08:08AM 39.8986 -75.1467 66° East 213 245 4,200 2,280 Climbing FAA TRACON SMA TRACON (SMA)
08:08AM 39.9086 -75.1181 65° Northeast 244 281 4,800 2,100 Climbing FAA TRACON SMA TRACON (SMA)
08:09AM 39.9167 -75.0933 67° East 262 302 5,600 2,460 Climbing FAA TRACON SMA TRACON (SMA)
08:09AM 39.9358 -75.0758 35° Northeast 259 298 6,500 3,000 Climbing FAA TRACON SMA TRACON (SMA)
08:09AM 39.9611 -75.0781 356° North 246 283 7,600 2,820 Climbing FAA TRACON SMA TRACON (SMA)
08:10AM 39.9817 -75.0933 330° Northwest 281 323 8,400 1,920 Climbing FAA TRACON SMA TRACON (SMA)
08:10AM 40.0003 -75.1131 321° Northwest 292 336 8,900 900 Climbing FAA TRACON SMA TRACON (SMA)
08:10AM 40.0217 -75.1411 315° West 289 333 9,000 120 Climbing FAA TRACON SMA TRACON (SMA)
08:11AM 39.8228 -75.8469 258° West  Level FlightAware Approximate
08:11AM 40.0294 -75.1711 289° West 291 335 9,000  Level FAA TRACON SMA TRACON (SMA)
08:11AM 40.0283 -75.2022 267° West 281 323 9,000 240 Level FAA TRACON SMA TRACON (SMA)
08:11AM 40.0167 -75.2386 247° West 280 322 9,200 720 Climbing FAA TRACON SMA TRACON (SMA)
08:12AM 39.8022 -75.9704 258° West  Level FlightAware Approximate
08:12AM 40.0072 -75.2672 247° West 282 325 9,500  Level FAA TRACON SMA TRACON (SMA)
08:12AM 39.9981 -75.2967 248° West 285 328 9,800 720 Climbing FAA TRACON SMA TRACON (SMA)
08:12AM 39.9864 -75.3331 247° West 286 329 10,000 300 Climbing FAA TRACON SMA TRACON (SMA)
08:13AM 39.9772 -75.3644 249° West 295 339 10,000  Level FAA TRACON SMA TRACON (SMA)
08:13AM 39.9664 -75.3964 246° West 311 358 10,000  Level FAA TRACON SMA TRACON (SMA)
08:13AM 39.9542 -75.4350 248° West 304 350 10,000  Level FAA TRACON SMA TRACON (SMA)
08:14AM 39.9447 -75.4658 248° West 305 351 10,000 120 Level FAA TRACON SMA TRACON (SMA)
08:14AM 39.9375 -75.4994 254° West 324 373 10,100 1,920 Climbing FAA TRACON SMA TRACON (SMA)
08:14AM 39.9367 -75.5431 269° West 317 365 11,300 3,120 Climbing FAA TRACON SMA TRACON (SMA)
08:15AM 39.9353 -75.5767 267° West 312 359 12,200 3,000 Climbing FAA TRACON SMA TRACON (SMA)
08:15AM 39.9331 -75.6214 266° West 313 360 13,300 2,760 Climbing FAA TRACON SMA TRACON (SMA)
08:15AM 39.9322 -75.6561 268° West 313 360 14,100 2,220 Climbing FAA TRACON SMA TRACON (SMA)
08:16AM 39.9311 -75.6911 268° West 314 361 14,800 1,380 Climbing FAA TRACON SMA TRACON (SMA)
08:16AM 39.9300 -75.7339 268° West 316 364 15,000 300 Climbing FAA TRACON SMA TRACON (SMA)
08:16AM 39.9297 -75.7711 269° West 319 367 15,000  Level FAA TRACON SMA TRACON (SMA)
08:17AM 39.9292 -75.8069 269° West 319 367 15,000  Level FAA TRACON SMA TRACON (SMA)
08:17AM 39.9283 -75.8419 268° West 320 368 15,000 720 Level FAA TRACON SMA TRACON (SMA)
08:17AM 39.9272 -75.8872 268° West 321 369 15,500 1,740 Climbing FAA TRACON SMA TRACON (SMA)
08:18AM 39.9250 -75.9206 265° West 323 372 16,200 2,400 Climbing FAA TRACON SMA TRACON (SMA)
08:18AM 39.9119 -75.9664 250° West 326 375 17,100 2,520 Climbing FAA TRACON SMA TRACON (SMA)
08:18AM 39.8978 -75.9994 241° Southwest 337 388 17,800 1,200 Climbing FAA TRACON SMA TRACON (SMA)
08:19AM 39.8842 -76.0286 239° Southwest 332 382 17,900 60 Climbing FAA TRACON SMA TRACON (SMA)
08:19AM 39.8842 -76.0286 194° South 332 382 17,900 1,800 Level FAA TRACON SMA TRACON (SMA)
08:22AM 39.7636 -76.3289 242° Southwest 347 399 23,000 2,160 Climbing New York Center
08:23AM 39.7167 -76.4414 242° Southwest 353 406 24,700 1,620 Climbing New York Center
08:24AM 39.6692 -76.5561 242° Southwest 363 418 26,300 1,440 Climbing New York Center
08:25AM 39.6586 -76.6875 264° West 363 418 27,700 1,320 Climbing New York Center
08:26AM 39.6658 -76.8311 274° West 370 426 29,000 1,320 Climbing New York Center
08:27AM 39.6522 -76.9728 263° West 388 447 30,300 1,500 Climbing New York Center
08:28AM 39.5750 -77.1072 233° Southwest 374 430 32,200 1,440 Climbing Washington Center
08:29AM 39.5069 -77.2161 231° Southwest 388 447 33,400 1,080 Climbing Washington Center
08:30AM 39.4244 -77.3083 221° Southwest 388 447 34,400 1,020 Climbing Washington Center
08:31AM 39.3439 -77.4003 221° Southwest 388 447 35,500 780 Climbing Washington Center
08:32AM 39.2672 -77.4950 224° Southwest 393 452 36,000 240 Climbing Washington Center
08:33AM 39.1864 -77.5919 223° Southwest 398 458 36,000  Level Washington Center
08:34AM 39.1056 -77.6914 224° Southwest 398 458 36,000  Level Washington Center
08:35AM 39.0247 -77.7881 223° Southwest 398 458 36,000  Level Washington Center
08:36AM 38.9500 -77.8739 222° Southwest 398 458 36,000  Level Washington Center
08:37AM 38.8689 -77.9781 225° Southwest 403 464 36,000  Level Washington Center
08:38AM 38.7856 -78.0739 222° Southwest 403 464 36,000  Level Washington Center
08:39AM 38.7044 -78.1722 223° Southwest 403 464 36,000  Level Washington Center
08:40AM 38.6186 -78.2756 223° Southwest 408 470 36,000  Level Washington Center
08:41AM 38.5372 -78.3706 222° Southwest 408 470 36,000  Level Washington Center
08:42AM 38.4536 -78.4683 222° Southwest 408 470 36,000  Level Washington Center
08:43AM 38.3678 -78.5683 222° Southwest 408 470 36,000  Level Washington Center
08:44AM 38.2861 -78.6683 224° Southwest 408 470 36,000  Level Washington Center
08:45AM 38.1956 -78.7753 223° Southwest 408 470 36,000  Level Washington Center
08:46AM 38.1097 -78.8719 222° Southwest 408 470 36,000  Level Washington Center
08:47AM 38.0233 -78.9739 223° Southwest 413 475 36,000  Level Washington Center
08:48AM 37.9458 -79.0597 221° Southwest 413 475 36,000  Level Washington Center
08:49AM 37.8739 -79.1697 230° Southwest 413 475 36,000  Level Washington Center
08:50AM 37.8139 -79.2903 238° Southwest 407 468 36,000  Level Washington Center
08:51AM 37.7469 -79.4264 238° Southwest 413 475 36,000  Level Washington Center
08:52AM 37.6892 -79.5361 236° Southwest 418 481 36,000  Level Washington Center
08:53AM 37.6200 -79.6717 237° Southwest 424 488 36,000  Level Washington Center
08:54AM 37.5639 -79.7839 238° Southwest 429 494 36,000  Level Washington Center
08:55AM 37.5011 -79.9111 238° Southwest 429 494 36,000  Level Washington Center
08:56AM 37.4358 -80.0358 237° Southwest 429 494 36,000  Level Washington Center
08:57AM 37.3683 -80.1703 238° Southwest 424 488 36,000  Level Washington Center
08:58AM 37.3072 -80.2894 237° Southwest 424 488 36,000  Level Washington Center
08:58AM 37.2611 -80.3778 237° Southwest 422 486 36,000  Level Atlanta Center
08:59AM 37.1978 -80.4953 236° Southwest 398 458 36,000  Level Atlanta Center
09:00AM 37.1367 -80.6153 237° Southwest 404 465 36,000  Level Atlanta Center
09:01AM 37.0814 -80.7322 239° Southwest 404 465 36,000  Level Atlanta Center
09:02AM 37.0325 -80.8589 244° Southwest 397 457 36,000  Level Atlanta Center
09:03AM 36.9939 -80.9722 247° West 397 457 36,000  Level Atlanta Center
09:04AM 36.9489 -81.0986 246° West 397 457 36,000  Level Atlanta Center
09:05AM 36.9019 -81.2225 245° Southwest 397 457 36,000  Level Atlanta Center
09:06AM 36.8567 -81.3511 246° West 402 463 36,000 120 Level Atlanta Center
09:07AM 36.8075 -81.4875 246° West 402 463 36,300 540 Climbing Atlanta Center
09:08AM 36.7661 -81.6108 247° West 402 463 37,100 840 Climbing Atlanta Center
09:09AM 36.7208 -81.7389 246° West 397 457 38,000 420 Climbing Atlanta Center
09:10AM 36.6772 -81.8594 246° West 397 457 38,000  Level Atlanta Center
09:11AM 36.6292 -81.9822 244° Southwest 397 457 38,000  Level Atlanta Center
09:12AM 36.5833 -82.1075 246° West 397 457 38,000  Level Atlanta Center
09:13AM 36.5392 -82.2247 245° Southwest 390 449 38,000  Level Atlanta Center
09:14AM 36.4950 -82.3447 245° Southwest 390 449 38,000  Level Atlanta Center
09:15AM 36.4528 -82.4617 246° West 385 443 38,000  Level Atlanta Center
09:16AM 36.4042 -82.5814 243° Southwest 385 443 38,000  Level Atlanta Center
09:17AM 36.3617 -82.6981 246° West 385 443 38,000  Level Atlanta Center
09:18AM 36.3172 -82.8200 246° West 385 443 38,000  Level Atlanta Center
09:19AM 36.2722 -82.9339 244° Southwest 385 443 38,000  Level Atlanta Center
09:20AM 36.2275 -83.0556 246° West 385 443 38,000  Level Atlanta Center
09:21AM 36.1825 -83.1744 245° Southwest 385 443 38,000  Level Atlanta Center
09:22AM 36.1414 -83.2803 244° Southwest 385 443 38,000  Level Atlanta Center
09:23AM 36.0983 -83.3964 245° Southwest 385 443 38,000  Level Atlanta Center
09:24AM 36.0508 -83.5147 244° Southwest 385 443 38,000  Level Atlanta Center
09:25AM 36.0033 -83.6408 245° Southwest 380 437 38,000  Level Atlanta Center
09:26AM 35.9578 -83.7617 245° Southwest 380 437 38,000  Level Atlanta Center
09:27AM 35.9100 -83.8797 243° Southwest 380 437 38,000  Level Atlanta Center
09:28AM 35.8414 -83.9825 231° Southwest 392 451 38,000  Level Atlanta Center
09:29AM 35.7703 -84.0822 229° Southwest 392 451 38,000  Level Atlanta Center
09:30AM 35.6972 -84.1869 229° Southwest 392 451 38,000  Level Atlanta Center
09:31AM 35.6261 -84.2867 229° Southwest 397 457 38,000  Level Atlanta Center
09:32AM 35.5614 -84.3731 227° Southwest 391 450 38,000  Level Atlanta Center
09:33AM 35.4900 -84.4722 229° Southwest 386 444 38,000  Level Atlanta Center
09:34AM 35.4189 -84.5689 228° Southwest 386 444 38,000  Level Atlanta Center
09:35AM 35.3475 -84.6678 229° Southwest 386 444 38,000  Level Atlanta Center
09:36AM 35.2781 -84.7664 229° Southwest 386 444 38,000  Level Atlanta Center
09:37AM 35.2044 -84.8650 228° Southwest 386 444 38,000  Level Atlanta Center
09:38AM 35.1328 -84.9606 227° Southwest 386 444 38,000  Level Atlanta Center
09:39AM 35.0631 -85.0614 230° Southwest 386 444 38,000  Level Atlanta Center
09:40AM 34.9892 -85.1594 227° Southwest 386 444 38,000  Level Atlanta Center
09:41AM 34.9194 -85.2572 229° Southwest 386 444 38,000  Level Atlanta Center
09:42AM 34.8453 -85.3522 226° Southwest 386 444 38,000  Level Atlanta Center
09:43AM 34.7733 -85.4522 229° Southwest 386 444 38,000  Level Atlanta Center
09:44AM 34.7011 -85.5472 227° Southwest 386 444 38,000  Level Atlanta Center
09:45AM 34.6269 -85.6442 227° Southwest 386 444 38,000  Level Atlanta Center
09:46AM 34.5547 -85.7436 229° Southwest 386 444 38,000  Level Atlanta Center
09:47AM 34.4825 -85.8381 227° Southwest 386 444 38,000  Level Atlanta Center
09:48AM 34.4100 -85.9347 228° Southwest 386 444 38,000  Level Atlanta Center
09:49AM 34.3353 -86.0311 227° Southwest 386 444 38,000  Level Atlanta Center
09:50AM 34.2608 -86.1300 228° Southwest 386 444 38,000  Level Atlanta Center
09:51AM 34.1881 -86.2236 227° Southwest 386 444 38,000  Level Atlanta Center
09:52AM 34.1156 -86.3194 228° Southwest 386 444 38,000  Level Atlanta Center
09:53AM 34.0406 -86.4153 227° Southwest 386 444 38,000  Level Atlanta Center
09:54AM 33.9656 -86.5133 227° Southwest 386 444 38,000  Level Atlanta Center
09:55AM 33.8928 -86.6089 227° Southwest 386 444 38,000  Level Atlanta Center
09:56AM 33.8197 -86.7067 228° Southwest 386 444 38,000  Level Atlanta Center
09:57AM 33.7444 -86.7992 226° Southwest 386 444 38,000  Level Atlanta Center
09:58AM 33.6714 -86.8969 228° Southwest 386 444 38,000  Level Atlanta Center
09:59AM 33.6022 -86.9967 230° Southwest 386 444 38,000  Level Atlanta Center
10:00AM 33.5350 -87.1017 232° Southwest 391 450 38,000  Level Atlanta Center
10:01AM 33.4700 -87.1989 231° Southwest 396 456 38,000  Level Atlanta Center
10:03AM 33.3581 -87.3678 232° Southwest 404 465 38,000  Level Memphis Center
10:04AM 33.2917 -87.4644 231° Southwest 398 458 38,000  Level Memphis Center
10:05AM 33.2269 -87.5633 232° Southwest 387 445 38,000  Level Memphis Center
10:06AM 33.1625 -87.6597 231° Southwest 380 437 38,000  Level Memphis Center
10:07AM 33.0975 -87.7536 230° Southwest 380 437 38,000  Level Memphis Center
10:08AM 33.0328 -87.8494 231° Southwest 380 437 38,000  Level Memphis Center
10:09AM 32.9700 -87.9481 233° Southwest 380 437 38,000  Level Memphis Center
10:10AM 32.9092 -88.0411 232° Southwest 375 432 38,000  Level Memphis Center
10:11AM 32.8419 -88.1369 230° Southwest 375 432 38,000  Level Memphis Center
10:12AM 32.7789 -88.2272 230° Southwest 375 432 38,000  Level Memphis Center
10:13AM 32.7117 -88.3253 231° Southwest 375 432 38,000  Level Memphis Center
10:14AM 32.6464 -88.4206 231° Southwest 375 432 38,000  Level Memphis Center
10:15AM 32.5811 -88.5156 231° Southwest 375 432 38,000  Level Memphis Center
10:16AM 32.5156 -88.6106 231° Southwest 375 432 38,000  Level Memphis Center
10:17AM 32.4481 -88.7081 231° Southwest 375 432 38,000  Level Memphis Center
10:18AM 32.3825 -88.8003 230° Southwest 375 432 38,000  Level Memphis Center
10:19AM 32.3019 -88.8828 221° Southwest 375 432 38,000  Level Memphis Center
10:20AM 32.2172 -88.9625 219° Southwest 387 445 38,000  Level Memphis Center
10:21AM 32.1347 -89.0425 219° Southwest 393 452 38,000 -480 Level Memphis Center
10:22AM 32.0478 -89.1244 219° Southwest 399 459 37,100 -1,800 Descending Memphis Center
10:24AM 31.8456 -89.3208 220° Southwest 397 457 32,000 -2,160 Descending Houston Center
10:25AM 31.7581 -89.4044 219° Southwest 403 464 29,800 -2,100 Descending Houston Center
10:27AM 31.6739 -89.4856 219° Southwest 399 459 27,700 -2,160 Descending Houston Center
10:28AM 31.5742 -89.5806 219° Southwest 390 449 25,300 -1,800 Descending Houston Center
10:29AM 31.4969 -89.6542 219° Southwest 372 428 24,000 -660 Descending Houston Center
10:30AM 31.4133 -89.7214 214° Southwest 366 421 24,000  Level Houston Center
10:31AM 31.3192 -89.7733 205° Southwest 377 434 24,000 -240 Level Houston Center
10:33AM 31.1239 -89.8819 205° Southwest 372 428 23,400 -600 Descending Houston Center
10:33AM 31.0869 -89.9031 206° Southwest 371 427 22,600 -1,980 Descending Houston Center
10:34AM 31.0211 -89.9361 203° Southwest 370 426 21,300 -2,040 Descending Houston Center
10:34AM 30.9803 -89.9611 208° Southwest 364 419 20,400 -1,860 Descending Houston Center
10:35AM 30.9339 -89.9856 204° Southwest 357 411 19,400 -1,920 Descending Houston Center
10:35AM 30.8919 -90.0108 207° Southwest 347 399 18,500 -1,800 Descending Houston Center
10:36AM 30.8461 -90.0325 202° Southwest 352 405 17,600 -1,980 Descending Houston Center
10:36AM 30.8058 -90.0581 209° Southwest 345 397 16,500 -1,860 Descending Houston Center
10:37AM 30.7611 -90.0803 203° Southwest 345 397 15,700 -1,680 Descending Houston Center
10:37AM 30.7192 -90.0958 198° South 337 388 14,800 -1,800 Descending Houston Center
10:38AM 30.6703 -90.1050 189° South 339 390 13,900 -1,860 Descending Houston Center
10:39AM 30.5989 -90.1200 190° South 330 380 12,400 -2,040 Descending Houston Center
10:39AM 30.5636 -90.1267 189° South 331 381 11,800 -1,800 Descending Houston Center
10:40AM 30.4992 -90.1386 189° South 318 366 10,400 -1,860 Descending Houston Center
10:40AM 30.4747 -90.1406 184° South 326 375 9,900 -2,160 Descending Houston Center
10:40AM 30.4494 -90.1503 198° South 290 334 9,100 -2,340 Descending Houston Center
10:41AM 30.3931 -90.1531 182° South 317 365 7,500 -2,400 Descending Houston Center
10:41AM 30.3703 -90.1633 201° Southwest 279 321 6,700 -1,860 Descending Houston Center
10:42AM 30.3144 -90.1675 184° South 304 350 5,600 -1,620 Descending Houston Center
10:42AM 30.2914 -90.1786 203° Southwest 270 311 4,900 -1,260 Descending Houston Center
10:43AM 30.2292 -90.1908 190° South 245 282 4,000 -900 Descending Houston Center
10:44AM 30.1667 -90.2031 190° South 221 254 3,200 -960 Descending Houston Center
10:45AM 30.1106 -90.2125 188° South 186 214 2,100 -1,140 Descending Houston Center